sensor_id;sensor_type;location;lat;lon;timestamp;P1;durP1;ratioP1;P2;durP2;ratioP2
45848;SDS011;31567;54.600;9.842;2023-05-07T00:03:22;14.75;;;8.30;;
45848;SDS011;31567;54.600;9.842;2023-05-07T00:07:01;17.50;;;8.82;;
45848;SDS011;31567;54.600;9.842;2023-05-07T00:10:41;15.45;;;8.32;;
45848;SDS011;31567;54.600;9.842;2023-05-07T00:14:21;16.98;;;8.32;;
45848;SDS011;31567;54.600;9.842;2023-05-07T00:18:00;18.60;;;8.60;;
45848;SDS011;31567;54.600;9.842;2023-05-07T00:21:40;19.88;;;9.63;;
45848;SDS011;31567;54.600;9.842;2023-05-07T00:25:19;16.55;;;8.80;;
45848;SDS011;31567;54.600;9.842;2023-05-07T00:28:59;19.83;;;9.35;;
45848;SDS011;31567;54.600;9.842;2023-05-07T00:32:39;20.23;;;9.07;;
45848;SDS011;31567;54.600;9.842;2023-05-07T00:36:18;18.88;;;8.55;;
45848;SDS011;31567;54.600;9.842;2023-05-07T00:39:58;18.50;;;8.80;;
45848;SDS011;31567;54.600;9.842;2023-05-07T00:43:37;19.58;;;9.43;;
45848;SDS011;31567;54.600;9.842;2023-05-07T00:47:17;19.70;;;9.10;;
45848;SDS011;31567;54.600;9.842;2023-05-07T00:50:57;18.00;;;9.43;;
45848;SDS011;31567;54.600;9.842;2023-05-07T00:54:36;20.27;;;8.95;;
45848;SDS011;31567;54.600;9.842;2023-05-07T00:58:16;17.83;;;9.90;;
45848;SDS011;31567;54.600;9.842;2023-05-07T01:01:56;18.52;;;9.75;;
45848;SDS011;31567;54.600;9.842;2023-05-07T01:05:36;16.77;;;10.88;;
45848;SDS011;31567;54.600;9.842;2023-05-07T01:09:15;15.82;;;10.30;;
45848;SDS011;31567;54.600;9.842;2023-05-07T01:12:55;20.73;;;10.95;;
45848;SDS011;31567;54.600;9.842;2023-05-07T01:16:37;16.08;;;11.23;;
45848;SDS011;31567;54.600;9.842;2023-05-07T01:20:17;16.65;;;11.43;;
45848;SDS011;31567;54.600;9.842;2023-05-07T01:23:57;13.13;;;11.48;;
45848;SDS011;31567;54.600;9.842;2023-05-07T01:27:37;17.65;;;11.10;;
45848;SDS011;31567;54.600;9.842;2023-05-07T01:31:17;18.00;;;11.82;;
45848;SDS011;31567;54.600;9.842;2023-05-07T01:34:57;14.02;;;10.27;;
45848;SDS011;31567;54.600;9.842;2023-05-07T01:38:38;13.55;;;10.73;;
45848;SDS011;31567;54.600;9.842;2023-05-07T01:42:20;14.27;;;10.52;;
45848;SDS011;31567;54.600;9.842;2023-05-07T01:46:00;17.45;;;11.05;;
45848;SDS011;31567;54.600;9.842;2023-05-07T01:49:41;17.55;;;11.70;;
45848;SDS011;31567;54.600;9.842;2023-05-07T01:53:21;12.48;;;10.30;;
45848;SDS011;31567;54.600;9.842;2023-05-07T01:57:01;16.85;;;11.32;;
45848;SDS011;31567;54.600;9.842;2023-05-07T02:00:40;16.75;;;10.35;;
45848;SDS011;31567;54.600;9.842;2023-05-07T02:04:20;16.35;;;11.18;;
45848;SDS011;31567;54.600;9.842;2023-05-07T02:07:59;16.92;;;11.25;;
45848;SDS011;31567;54.600;9.842;2023-05-07T02:11:39;12.63;;;10.18;;
45848;SDS011;31567;54.600;9.842;2023-05-07T02:15:18;12.18;;;10.02;;
45848;SDS011;31567;54.600;9.842;2023-05-07T02:18:58;14.02;;;10.45;;
45848;SDS011;31567;54.600;9.842;2023-05-07T02:22:38;13.90;;;10.38;;
45848;SDS011;31567;54.600;9.842;2023-05-07T02:26:17;14.70;;;11.00;;
45848;SDS011;31567;54.600;9.842;2023-05-07T02:29:57;13.55;;;10.88;;
45848;SDS011;31567;54.600;9.842;2023-05-07T02:33:36;17.73;;;12.00;;
45848;SDS011;31567;54.600;9.842;2023-05-07T02:37:16;13.43;;;9.75;;
45848;SDS011;31567;54.600;9.842;2023-05-07T02:40:55;14.75;;;11.68;;
45848;SDS011;31567;54.600;9.842;2023-05-07T02:44:35;12.98;;;11.00;;
45848;SDS011;31567;54.600;9.842;2023-05-07T02:48:14;16.58;;;11.40;;
45848;SDS011;31567;54.600;9.842;2023-05-07T02:51:54;14.50;;;11.52;;
45848;SDS011;31567;54.600;9.842;2023-05-07T02:55:34;12.52;;;10.55;;
45848;SDS011;31567;54.600;9.842;2023-05-07T02:59:14;12.10;;;10.90;;
45848;SDS011;31567;54.600;9.842;2023-05-07T03:02:53;11.82;;;10.43;;
45848;SDS011;31567;54.600;9.842;2023-05-07T03:06:33;13.70;;;11.68;;
45848;SDS011;31567;54.600;9.842;2023-05-07T03:10:12;13.75;;;11.38;;
45848;SDS011;31567;54.600;9.842;2023-05-07T03:13:52;13.65;;;11.40;;
45848;SDS011;31567;54.600;9.842;2023-05-07T03:17:32;12.55;;;11.25;;
45848;SDS011;31567;54.600;9.842;2023-05-07T03:21:11;12.13;;;10.85;;
45848;SDS011;31567;54.600;9.842;2023-05-07T03:24:51;13.70;;;11.52;;
45848;SDS011;31567;54.600;9.842;2023-05-07T03:28:30;12.15;;;10.80;;
45848;SDS011;31567;54.600;9.842;2023-05-07T03:32:10;12.98;;;11.60;;
45848;SDS011;31567;54.600;9.842;2023-05-07T03:35:49;13.88;;;11.85;;
45848;SDS011;31567;54.600;9.842;2023-05-07T03:39:29;14.18;;;11.35;;
45848;SDS011;31567;54.600;9.842;2023-05-07T03:43:09;12.57;;;10.50;;
45848;SDS011;31567;54.600;9.842;2023-05-07T03:46:48;15.93;;;11.60;;
45848;SDS011;31567;54.600;9.842;2023-05-07T03:50:28;12.50;;;10.43;;
45848;SDS011;31567;54.600;9.842;2023-05-07T03:54:07;11.50;;;10.25;;
45848;SDS011;31567;54.600;9.842;2023-05-07T03:57:47;11.70;;;10.45;;
45848;SDS011;31567;54.600;9.842;2023-05-07T04:01:26;10.73;;;9.60;;
45848;SDS011;31567;54.600;9.842;2023-05-07T04:05:06;10.52;;;9.27;;
45848;SDS011;31567;54.600;9.842;2023-05-07T04:08:46;10.88;;;9.82;;
45848;SDS011;31567;54.600;9.842;2023-05-07T04:12:25;10.05;;;9.05;;
45848;SDS011;31567;54.600;9.842;2023-05-07T04:16:05;9.85;;;8.85;;
45848;SDS011;31567;54.600;9.842;2023-05-07T04:19:45;11.82;;;9.95;;
45848;SDS011;31567;54.600;9.842;2023-05-07T04:23:25;11.07;;;9.85;;
45848;SDS011;31567;54.600;9.842;2023-05-07T04:27:05;10.70;;;9.38;;
45848;SDS011;31567;54.600;9.842;2023-05-07T04:30:45;10.07;;;9.05;;
45848;SDS011;31567;54.600;9.842;2023-05-07T04:34:24;11.65;;;9.55;;
45848;SDS011;31567;54.600;9.842;2023-05-07T04:38:04;12.60;;;9.82;;
45848;SDS011;31567;54.600;9.842;2023-05-07T04:41:44;11.13;;;9.45;;
45848;SDS011;31567;54.600;9.842;2023-05-07T04:45:23;10.27;;;9.25;;
45848;SDS011;31567;54.600;9.842;2023-05-07T04:49:03;10.93;;;9.65;;
45848;SDS011;31567;54.600;9.842;2023-05-07T04:52:42;13.15;;;10.50;;
45848;SDS011;31567;54.600;9.842;2023-05-07T04:56:22;9.90;;;8.90;;
45848;SDS011;31567;54.600;9.842;2023-05-07T05:00:02;10.15;;;9.02;;
45848;SDS011;31567;54.600;9.842;2023-05-07T05:03:43;11.68;;;8.30;;
45848;SDS011;31567;54.600;9.842;2023-05-07T05:07:22;12.15;;;8.55;;
45848;SDS011;31567;54.600;9.842;2023-05-07T05:11:02;9.43;;;8.38;;
45848;SDS011;31567;54.600;9.842;2023-05-07T05:14:41;7.93;;;7.13;;
45848;SDS011;31567;54.600;9.842;2023-05-07T05:18:22;8.52;;;7.65;;
45848;SDS011;31567;54.600;9.842;2023-05-07T05:22:01;7.97;;;7.28;;
45848;SDS011;31567;54.600;9.842;2023-05-07T05:25:42;8.75;;;6.80;;
45848;SDS011;31567;54.600;9.842;2023-05-07T05:29:22;8.35;;;6.60;;
45848;SDS011;31567;54.600;9.842;2023-05-07T05:33:01;9.98;;;7.55;;
45848;SDS011;31567;54.600;9.842;2023-05-07T05:36:41;8.10;;;7.20;;
45848;SDS011;31567;54.600;9.842;2023-05-07T05:40:21;8.25;;;7.55;;
45848;SDS011;31567;54.600;9.842;2023-05-07T05:44:00;9.43;;;7.72;;
45848;SDS011;31567;54.600;9.842;2023-05-07T05:47:40;9.57;;;7.68;;
45848;SDS011;31567;54.600;9.842;2023-05-07T05:51:20;10.32;;;8.30;;
45848;SDS011;31567;54.600;9.842;2023-05-07T05:55:00;8.50;;;7.70;;
45848;SDS011;31567;54.600;9.842;2023-05-07T05:58:39;8.07;;;7.28;;
45848;SDS011;31567;54.600;9.842;2023-05-07T06:02:19;8.57;;;7.68;;
45848;SDS011;31567;54.600;9.842;2023-05-07T06:05:59;8.13;;;7.32;;
45848;SDS011;31567;54.600;9.842;2023-05-07T06:09:41;10.35;;;7.85;;
45848;SDS011;31567;54.600;9.842;2023-05-07T06:13:21;8.55;;;7.65;;
45848;SDS011;31567;54.600;9.842;2023-05-07T06:17:01;10.82;;;7.97;;
45848;SDS011;31567;54.600;9.842;2023-05-07T06:20:41;8.40;;;7.55;;
45848;SDS011;31567;54.600;9.842;2023-05-07T06:24:20;8.60;;;7.57;;
45848;SDS011;31567;54.600;9.842;2023-05-07T06:28:00;8.93;;;7.85;;
45848;SDS011;31567;54.600;9.842;2023-05-07T06:31:39;8.80;;;7.68;;
45848;SDS011;31567;54.600;9.842;2023-05-07T06:35:19;8.73;;;7.55;;
45848;SDS011;31567;54.600;9.842;2023-05-07T06:38:58;10.05;;;7.80;;
45848;SDS011;31567;54.600;9.842;2023-05-07T06:42:38;8.43;;;7.28;;
45848;SDS011;31567;54.600;9.842;2023-05-07T06:46:17;8.52;;;7.22;;
45848;SDS011;31567;54.600;9.842;2023-05-07T06:49:57;9.20;;;6.97;;
45848;SDS011;31567;54.600;9.842;2023-05-07T06:53:36;11.43;;;7.45;;
45848;SDS011;31567;54.600;9.842;2023-05-07T06:57:16;8.38;;;7.30;;
45848;SDS011;31567;54.600;9.842;2023-05-07T07:00:55;7.55;;;6.80;;
45848;SDS011;31567;54.600;9.842;2023-05-07T07:04:35;9.10;;;7.60;;
45848;SDS011;31567;54.600;9.842;2023-05-07T07:08:15;8.50;;;7.07;;
45848;SDS011;31567;54.600;9.842;2023-05-07T07:11:56;8.52;;;7.40;;
45848;SDS011;31567;54.600;9.842;2023-05-07T07:15:36;8.57;;;7.53;;
45848;SDS011;31567;54.600;9.842;2023-05-07T07:19:15;9.13;;;7.43;;
45848;SDS011;31567;54.600;9.842;2023-05-07T07:22:55;9.32;;;7.68;;
45848;SDS011;31567;54.600;9.842;2023-05-07T07:26:35;9.38;;;7.70;;
45848;SDS011;31567;54.600;9.842;2023-05-07T07:30:14;8.40;;;7.63;;
45848;SDS011;31567;54.600;9.842;2023-05-07T07:33:54;9.00;;;7.78;;
45848;SDS011;31567;54.600;9.842;2023-05-07T07:37:33;9.55;;;7.75;;
45848;SDS011;31567;54.600;9.842;2023-05-07T07:41:13;10.68;;;7.50;;
45848;SDS011;31567;54.600;9.842;2023-05-07T07:44:52;10.32;;;7.50;;
45848;SDS011;31567;54.600;9.842;2023-05-07T07:48:32;11.95;;;8.05;;
45848;SDS011;31567;54.600;9.842;2023-05-07T07:52:12;8.35;;;7.53;;
45848;SDS011;31567;54.600;9.842;2023-05-07T07:55:52;8.60;;;7.38;;
45848;SDS011;31567;54.600;9.842;2023-05-07T07:59:31;9.20;;;7.75;;
45848;SDS011;31567;54.600;9.842;2023-05-07T08:03:11;7.78;;;7.03;;
45848;SDS011;31567;54.600;9.842;2023-05-07T08:06:50;7.60;;;6.82;;
45848;SDS011;31567;54.600;9.842;2023-05-07T08:10:30;7.88;;;7.13;;
45848;SDS011;31567;54.600;9.842;2023-05-07T08:14:13;8.55;;;7.22;;
45848;SDS011;31567;54.600;9.842;2023-05-07T08:17:54;9.27;;;7.15;;
45848;SDS011;31567;54.600;9.842;2023-05-07T08:21:38;8.57;;;7.68;;
45848;SDS011;31567;54.600;9.842;2023-05-07T08:25:19;8.05;;;7.25;;
45848;SDS011;31567;54.600;9.842;2023-05-07T08:28:58;8.85;;;7.13;;
45848;SDS011;31567;54.600;9.842;2023-05-07T08:32:38;8.95;;;7.65;;
45848;SDS011;31567;54.600;9.842;2023-05-07T08:36:17;8.73;;;6.93;;
45848;SDS011;31567;54.600;9.842;2023-05-07T08:39:58;7.63;;;6.93;;
45848;SDS011;31567;54.600;9.842;2023-05-07T08:43:37;7.70;;;6.97;;
45848;SDS011;31567;54.600;9.842;2023-05-07T08:47:19;7.60;;;6.80;;
45848;SDS011;31567;54.600;9.842;2023-05-07T08:51:02;8.18;;;7.38;;
45848;SDS011;31567;54.600;9.842;2023-05-07T08:54:41;9.07;;;6.45;;
45848;SDS011;31567;54.600;9.842;2023-05-07T08:58:22;7.32;;;6.47;;
45848;SDS011;31567;54.600;9.842;2023-05-07T09:02:01;8.88;;;6.70;;
45848;SDS011;31567;54.600;9.842;2023-05-07T09:05:41;7.78;;;6.90;;
45848;SDS011;31567;54.600;9.842;2023-05-07T09:09:22;7.68;;;6.80;;
45848;SDS011;31567;54.600;9.842;2023-05-07T09:13:02;7.80;;;7.00;;
45848;SDS011;31567;54.600;9.842;2023-05-07T09:16:42;8.48;;;7.25;;
45848;SDS011;31567;54.600;9.842;2023-05-07T09:20:22;7.45;;;6.70;;
45848;SDS011;31567;54.600;9.842;2023-05-07T09:24:01;8.98;;;7.05;;
45848;SDS011;31567;54.600;9.842;2023-05-07T09:27:41;9.25;;;7.88;;
45848;SDS011;31567;54.600;9.842;2023-05-07T09:31:21;9.32;;;8.32;;
45848;SDS011;31567;54.600;9.842;2023-05-07T09:35:02;10.23;;;7.72;;
45848;SDS011;31567;54.600;9.842;2023-05-07T09:38:42;10.68;;;7.50;;
45848;SDS011;31567;54.600;9.842;2023-05-07T09:42:24;10.07;;;7.10;;
45848;SDS011;31567;54.600;9.842;2023-05-07T09:46:13;10.75;;;7.93;;
45848;SDS011;31567;54.600;9.842;2023-05-07T09:49:55;9.45;;;7.60;;
45848;SDS011;31567;54.600;9.842;2023-05-07T09:53:36;8.32;;;7.53;;
45848;SDS011;31567;54.600;9.842;2023-05-07T09:57:18;9.68;;;7.45;;
45848;SDS011;31567;54.600;9.842;2023-05-07T10:00:59;10.02;;;7.45;;
45848;SDS011;31567;54.600;9.842;2023-05-07T10:04:40;8.90;;;6.60;;
45848;SDS011;31567;54.600;9.842;2023-05-07T10:08:20;8.00;;;7.20;;
45848;SDS011;31567;54.600;9.842;2023-05-07T10:11:59;9.68;;;7.85;;
45848;SDS011;31567;54.600;9.842;2023-05-07T10:15:39;7.93;;;6.93;;
45848;SDS011;31567;54.600;9.842;2023-05-07T10:19:20;11.05;;;7.22;;
45848;SDS011;31567;54.600;9.842;2023-05-07T10:23:00;9.88;;;7.13;;
45848;SDS011;31567;54.600;9.842;2023-05-07T10:26:43;7.97;;;6.93;;
45848;SDS011;31567;54.600;9.842;2023-05-07T10:30:26;9.75;;;6.90;;
45848;SDS011;31567;54.600;9.842;2023-05-07T10:34:29;7.55;;;6.82;;
45848;SDS011;31567;54.600;9.842;2023-05-07T10:38:14;7.20;;;6.50;;
45848;SDS011;31567;54.600;9.842;2023-05-07T10:41:54;6.78;;;5.45;;
45848;SDS011;31567;54.600;9.842;2023-05-07T10:45:34;10.10;;;5.88;;
45848;SDS011;31567;54.600;9.842;2023-05-07T10:49:13;6.60;;;5.90;;
45848;SDS011;31567;54.600;9.842;2023-05-07T11:01:17;8.75;;;5.72;;
45848;SDS011;31567;54.600;9.842;2023-05-07T11:05:35;6.28;;;5.70;;
45848;SDS011;31567;54.600;9.842;2023-05-07T11:09:14;6.10;;;5.45;;
45848;SDS011;31567;54.600;9.842;2023-05-07T11:12:55;7.28;;;5.15;;
45848;SDS011;31567;54.600;9.842;2023-05-07T11:16:35;7.30;;;5.18;;
45848;SDS011;31567;54.600;9.842;2023-05-07T11:20:16;6.18;;;5.22;;
45848;SDS011;31567;54.600;9.842;2023-05-07T11:23:56;6.60;;;4.80;;
45848;SDS011;31567;54.600;9.842;2023-05-07T11:27:36;4.72;;;4.22;;
45848;SDS011;31567;54.600;9.842;2023-05-07T11:31:17;6.40;;;5.05;;
45848;SDS011;31567;54.600;9.842;2023-05-07T11:35:01;5.85;;;4.57;;
45848;SDS011;31567;54.600;9.842;2023-05-07T11:38:41;5.10;;;4.60;;
45848;SDS011;31567;54.600;9.842;2023-05-07T11:46:10;4.47;;;4.05;;
45848;SDS011;31567;54.600;9.842;2023-05-07T11:49:51;6.88;;;4.43;;
45848;SDS011;31567;54.600;9.842;2023-05-07T11:53:36;5.35;;;4.50;;
45848;SDS011;31567;54.600;9.842;2023-05-07T11:57:17;4.72;;;4.22;;
45848;SDS011;31567;54.600;9.842;2023-05-07T12:00:56;4.45;;;4.05;;
45848;SDS011;31567;54.600;9.842;2023-05-07T12:04:37;5.13;;;4.15;;
45848;SDS011;31567;54.600;9.842;2023-05-07T12:08:18;4.78;;;3.80;;
45848;SDS011;31567;54.600;9.842;2023-05-07T12:12:02;7.15;;;4.20;;
45848;SDS011;31567;54.600;9.842;2023-05-07T12:15:43;5.25;;;4.00;;
45848;SDS011;31567;54.600;9.842;2023-05-07T12:19:23;5.60;;;4.75;;
45848;SDS011;31567;54.600;9.842;2023-05-07T12:23:03;6.47;;;5.10;;
45848;SDS011;31567;54.600;9.842;2023-05-07T12:26:43;7.40;;;4.65;;
45848;SDS011;31567;54.600;9.842;2023-05-07T12:30:22;7.07;;;4.80;;
45848;SDS011;31567;54.600;9.842;2023-05-07T12:34:02;6.53;;;5.05;;
45848;SDS011;31567;54.600;9.842;2023-05-07T12:37:42;7.65;;;5.70;;
45848;SDS011;31567;54.600;9.842;2023-05-07T12:41:21;8.27;;;5.53;;
45848;SDS011;31567;54.600;9.842;2023-05-07T12:45:10;7.38;;;5.05;;
45848;SDS011;31567;54.600;9.842;2023-05-07T12:48:51;6.93;;;5.22;;
45848;SDS011;31567;54.600;9.842;2023-05-07T12:52:31;8.85;;;6.72;;
45848;SDS011;31567;54.600;9.842;2023-05-07T12:56:12;8.02;;;5.30;;
45848;SDS011;31567;54.600;9.842;2023-05-07T12:59:57;11.52;;;6.35;;
45848;SDS011;31567;54.600;9.842;2023-05-07T13:03:37;6.40;;;5.00;;
45848;SDS011;31567;54.600;9.842;2023-05-07T13:07:17;9.05;;;5.50;;
45848;SDS011;31567;54.600;9.842;2023-05-07T13:11:00;6.15;;;5.18;;
45848;SDS011;31567;54.600;9.842;2023-05-07T13:14:42;8.75;;;6.20;;
45848;SDS011;31567;54.600;9.842;2023-05-07T13:18:22;8.10;;;5.68;;
45848;SDS011;31567;54.600;9.842;2023-05-07T13:22:03;8.55;;;5.55;;
45848;SDS011;31567;54.600;9.842;2023-05-07T13:25:42;7.57;;;5.10;;
45848;SDS011;31567;54.600;9.842;2023-05-07T13:29:22;7.13;;;5.47;;
45848;SDS011;31567;54.600;9.842;2023-05-07T13:33:08;7.00;;;5.40;;
45848;SDS011;31567;54.600;9.842;2023-05-07T13:36:48;7.20;;;5.40;;
45848;SDS011;31567;54.600;9.842;2023-05-07T13:40:28;9.85;;;5.68;;
45848;SDS011;31567;54.600;9.842;2023-05-07T13:44:07;8.57;;;5.25;;
45848;SDS011;31567;54.600;9.842;2023-05-07T13:47:47;12.85;;;6.25;;
45848;SDS011;31567;54.600;9.842;2023-05-07T13:51:28;10.35;;;6.35;;
45848;SDS011;31567;54.600;9.842;2023-05-07T13:55:08;6.85;;;5.38;;
45848;SDS011;31567;54.600;9.842;2023-05-07T13:58:48;8.43;;;5.50;;
45848;SDS011;31567;54.600;9.842;2023-05-07T14:02:27;7.57;;;5.50;;
45848;SDS011;31567;54.600;9.842;2023-05-07T14:06:07;12.90;;;6.20;;
45848;SDS011;31567;54.600;9.842;2023-05-07T14:09:46;7.05;;;5.38;;
45848;SDS011;31567;54.600;9.842;2023-05-07T14:13:26;8.95;;;5.13;;
45848;SDS011;31567;54.600;9.842;2023-05-07T14:17:06;11.05;;;5.85;;
45848;SDS011;31567;54.600;9.842;2023-05-07T14:20:47;6.53;;;4.72;;
45848;SDS011;31567;54.600;9.842;2023-05-07T14:24:27;7.80;;;5.20;;
45848;SDS011;31567;54.600;9.842;2023-05-07T14:28:07;7.50;;;5.35;;
45848;SDS011;31567;54.600;9.842;2023-05-07T14:31:46;8.70;;;5.40;;
45848;SDS011;31567;54.600;9.842;2023-05-07T14:35:26;6.47;;;5.25;;
45848;SDS011;31567;54.600;9.842;2023-05-07T14:39:05;7.78;;;5.45;;
45848;SDS011;31567;54.600;9.842;2023-05-07T14:42:45;10.27;;;5.00;;
45848;SDS011;31567;54.600;9.842;2023-05-07T14:46:25;7.47;;;5.00;;
45848;SDS011;31567;54.600;9.842;2023-05-07T14:50:04;9.80;;;5.10;;
45848;SDS011;31567;54.600;9.842;2023-05-07T14:53:44;5.60;;;4.65;;
45848;SDS011;31567;54.600;9.842;2023-05-07T14:57:24;5.28;;;4.57;;
45848;SDS011;31567;54.600;9.842;2023-05-07T15:01:03;6.82;;;4.07;;
45848;SDS011;31567;54.600;9.842;2023-05-07T15:04:43;7.00;;;4.47;;
45848;SDS011;31567;54.600;9.842;2023-05-07T15:08:26;7.50;;;4.53;;
45848;SDS011;31567;54.600;9.842;2023-05-07T15:12:05;5.07;;;4.38;;
45848;SDS011;31567;54.600;9.842;2023-05-07T15:15:45;6.80;;;4.28;;
45848;SDS011;31567;54.600;9.842;2023-05-07T15:19:25;5.82;;;4.70;;
45848;SDS011;31567;54.600;9.842;2023-05-07T15:23:08;7.25;;;4.05;;
45848;SDS011;31567;54.600;9.842;2023-05-07T15:26:52;9.20;;;4.22;;
45848;SDS011;31567;54.600;9.842;2023-05-07T15:30:32;7.30;;;4.32;;
45848;SDS011;31567;54.600;9.842;2023-05-07T15:34:12;7.43;;;3.75;;
45848;SDS011;31567;54.600;9.842;2023-05-07T15:37:53;7.38;;;4.43;;
45848;SDS011;31567;54.600;9.842;2023-05-07T15:41:33;6.13;;;3.60;;
45848;SDS011;31567;54.600;9.842;2023-05-07T15:45:12;6.25;;;4.05;;
45848;SDS011;31567;54.600;9.842;2023-05-07T15:48:52;8.00;;;4.38;;
45848;SDS011;31567;54.600;9.842;2023-05-07T15:52:32;5.57;;;3.92;;
45848;SDS011;31567;54.600;9.842;2023-05-07T15:56:12;4.60;;;3.70;;
45848;SDS011;31567;54.600;9.842;2023-05-07T15:59:51;7.50;;;3.85;;
45848;SDS011;31567;54.600;9.842;2023-05-07T16:03:31;6.90;;;4.15;;
45848;SDS011;31567;54.600;9.842;2023-05-07T16:07:11;4.85;;;3.40;;
45848;SDS011;31567;54.600;9.842;2023-05-07T16:10:50;9.75;;;3.92;;
45848;SDS011;31567;54.600;9.842;2023-05-07T16:14:30;8.35;;;3.78;;
45848;SDS011;31567;54.600;9.842;2023-05-07T16:18:10;6.65;;;3.92;;
45848;SDS011;31567;54.600;9.842;2023-05-07T16:21:53;6.28;;;3.47;;
45848;SDS011;31567;54.600;9.842;2023-05-07T16:25:33;5.95;;;3.65;;
45848;SDS011;31567;54.600;9.842;2023-05-07T16:29:13;4.32;;;3.25;;
45848;SDS011;31567;54.600;9.842;2023-05-07T16:32:53;5.68;;;3.42;;
45848;SDS011;31567;54.600;9.842;2023-05-07T16:36:33;7.30;;;3.55;;
45848;SDS011;31567;54.600;9.842;2023-05-07T16:40:13;7.25;;;3.78;;
45848;SDS011;31567;54.600;9.842;2023-05-07T16:43:52;5.97;;;3.70;;
45848;SDS011;31567;54.600;9.842;2023-05-07T16:47:32;7.38;;;3.85;;
45848;SDS011;31567;54.600;9.842;2023-05-07T16:51:11;4.75;;;3.22;;
45848;SDS011;31567;54.600;9.842;2023-05-07T16:54:51;4.72;;;2.90;;
45848;SDS011;31567;54.600;9.842;2023-05-07T16:58:36;4.32;;;3.05;;
45848;SDS011;31567;54.600;9.842;2023-05-07T17:02:15;8.90;;;3.55;;
45848;SDS011;31567;54.600;9.842;2023-05-07T17:05:55;7.45;;;3.40;;
45848;SDS011;31567;54.600;9.842;2023-05-07T17:09:34;5.45;;;3.60;;
45848;SDS011;31567;54.600;9.842;2023-05-07T17:13:14;5.28;;;3.30;;
45848;SDS011;31567;54.600;9.842;2023-05-07T17:16:53;7.40;;;3.63;;
45848;SDS011;31567;54.600;9.842;2023-05-07T17:20:33;9.00;;;4.28;;
45848;SDS011;31567;54.600;9.842;2023-05-07T17:24:13;6.13;;;3.47;;
45848;SDS011;31567;54.600;9.842;2023-05-07T17:27:53;6.80;;;4.00;;
45848;SDS011;31567;54.600;9.842;2023-05-07T17:31:32;8.10;;;3.60;;
45848;SDS011;31567;54.600;9.842;2023-05-07T17:35:12;7.93;;;3.75;;
45848;SDS011;31567;54.600;9.842;2023-05-07T17:38:51;7.75;;;4.03;;
45848;SDS011;31567;54.600;9.842;2023-05-07T17:42:31;7.75;;;3.88;;
45848;SDS011;31567;54.600;9.842;2023-05-07T17:46:11;5.65;;;3.47;;
45848;SDS011;31567;54.600;9.842;2023-05-07T17:49:50;7.25;;;3.53;;
45848;SDS011;31567;54.600;9.842;2023-05-07T17:53:31;6.20;;;3.42;;
45848;SDS011;31567;54.600;9.842;2023-05-07T17:57:11;7.13;;;4.00;;
45848;SDS011;31567;54.600;9.842;2023-05-07T18:00:50;8.40;;;3.90;;
45848;SDS011;31567;54.600;9.842;2023-05-07T18:04:31;7.00;;;3.67;;
45848;SDS011;31567;54.600;9.842;2023-05-07T18:08:11;7.05;;;3.75;;
45848;SDS011;31567;54.600;9.842;2023-05-07T18:11:50;8.07;;;3.83;;
45848;SDS011;31567;54.600;9.842;2023-05-07T18:15:30;6.80;;;3.50;;
45848;SDS011;31567;54.600;9.842;2023-05-07T18:19:10;8.27;;;3.65;;
45848;SDS011;31567;54.600;9.842;2023-05-07T18:22:50;5.85;;;4.05;;
45848;SDS011;31567;54.600;9.842;2023-05-07T18:26:29;6.47;;;3.67;;
45848;SDS011;31567;54.600;9.842;2023-05-07T18:30:09;10.00;;;3.83;;
45848;SDS011;31567;54.600;9.842;2023-05-07T18:33:52;6.22;;;3.67;;
45848;SDS011;31567;54.600;9.842;2023-05-07T18:37:33;7.65;;;3.70;;
45848;SDS011;31567;54.600;9.842;2023-05-07T18:41:13;8.02;;;3.85;;
45848;SDS011;31567;54.600;9.842;2023-05-07T18:44:52;8.52;;;4.28;;
45848;SDS011;31567;54.600;9.842;2023-05-07T18:48:32;6.30;;;3.30;;
45848;SDS011;31567;54.600;9.842;2023-05-07T18:52:12;10.88;;;3.88;;
45848;SDS011;31567;54.600;9.842;2023-05-07T18:55:51;5.00;;;3.38;;
45848;SDS011;31567;54.600;9.842;2023-05-07T18:59:31;8.13;;;3.33;;
45848;SDS011;31567;54.600;9.842;2023-05-07T19:03:10;6.25;;;3.58;;
45848;SDS011;31567;54.600;9.842;2023-05-07T19:06:50;7.40;;;4.00;;
45848;SDS011;31567;54.600;9.842;2023-05-07T19:10:30;5.32;;;3.80;;
45848;SDS011;31567;54.600;9.842;2023-05-07T19:14:09;6.90;;;3.95;;
45848;SDS011;31567;54.600;9.842;2023-05-07T19:17:49;6.93;;;3.28;;
45848;SDS011;31567;54.600;9.842;2023-05-07T19:21:29;6.60;;;3.55;;
45848;SDS011;31567;54.600;9.842;2023-05-07T19:25:08;8.23;;;3.45;;
45848;SDS011;31567;54.600;9.842;2023-05-07T19:28:48;6.72;;;3.63;;
45848;SDS011;31567;54.600;9.842;2023-05-07T19:32:29;5.60;;;3.60;;
45848;SDS011;31567;54.600;9.842;2023-05-07T19:36:09;6.45;;;3.50;;
45848;SDS011;31567;54.600;9.842;2023-05-07T19:39:48;6.03;;;3.30;;
45848;SDS011;31567;54.600;9.842;2023-05-07T19:43:29;7.57;;;3.70;;
45848;SDS011;31567;54.600;9.842;2023-05-07T19:47:13;6.05;;;3.47;;
45848;SDS011;31567;54.600;9.842;2023-05-07T19:50:54;6.63;;;3.50;;
45848;SDS011;31567;54.600;9.842;2023-05-07T19:54:34;7.88;;;3.50;;
45848;SDS011;31567;54.600;9.842;2023-05-07T19:58:14;9.18;;;3.70;;
45848;SDS011;31567;54.600;9.842;2023-05-07T20:01:54;5.35;;;3.63;;
45848;SDS011;31567;54.600;9.842;2023-05-07T20:05:34;7.55;;;4.03;;
45848;SDS011;31567;54.600;9.842;2023-05-07T20:09:13;4.70;;;3.97;;
45848;SDS011;31567;54.600;9.842;2023-05-07T20:12:53;7.32;;;3.75;;
45848;SDS011;31567;54.600;9.842;2023-05-07T20:16:32;6.10;;;3.55;;
45848;SDS011;31567;54.600;9.842;2023-05-07T20:20:12;8.73;;;3.90;;
45848;SDS011;31567;54.600;9.842;2023-05-07T20:23:52;6.38;;;3.90;;
45848;SDS011;31567;54.600;9.842;2023-05-07T20:27:32;6.40;;;3.95;;
45848;SDS011;31567;54.600;9.842;2023-05-07T20:31:13;7.15;;;3.70;;
45848;SDS011;31567;54.600;9.842;2023-05-07T20:34:54;7.00;;;3.75;;
45848;SDS011;31567;54.600;9.842;2023-05-07T20:38:33;5.80;;;4.05;;
45848;SDS011;31567;54.600;9.842;2023-05-07T20:42:13;9.75;;;3.88;;
45848;SDS011;31567;54.600;9.842;2023-05-07T20:45:59;8.77;;;3.38;;
45848;SDS011;31567;54.600;9.842;2023-05-07T20:49:41;7.40;;;3.45;;
45848;SDS011;31567;54.600;9.842;2023-05-07T20:53:21;6.35;;;3.38;;
45848;SDS011;31567;54.600;9.842;2023-05-07T20:57:01;9.52;;;4.07;;
45848;SDS011;31567;54.600;9.842;2023-05-07T21:00:40;8.70;;;4.25;;
45848;SDS011;31567;54.600;9.842;2023-05-07T21:04:20;5.78;;;3.58;;
45848;SDS011;31567;54.600;9.842;2023-05-07T21:07:59;6.78;;;3.40;;
45848;SDS011;31567;54.600;9.842;2023-05-07T21:11:39;6.35;;;4.13;;
45848;SDS011;31567;54.600;9.842;2023-05-07T21:15:18;6.53;;;3.30;;
45848;SDS011;31567;54.600;9.842;2023-05-07T21:18:58;7.47;;;3.90;;
45848;SDS011;31567;54.600;9.842;2023-05-07T21:22:37;5.72;;;3.30;;
45848;SDS011;31567;54.600;9.842;2023-05-07T21:26:17;4.60;;;3.30;;
45848;SDS011;31567;54.600;9.842;2023-05-07T21:29:57;6.07;;;3.53;;
45848;SDS011;31567;54.600;9.842;2023-05-07T21:33:42;6.88;;;3.08;;
45848;SDS011;31567;54.600;9.842;2023-05-07T21:37:22;8.07;;;3.72;;
45848;SDS011;31567;54.600;9.842;2023-05-07T21:41:01;6.22;;;3.60;;
45848;SDS011;31567;54.600;9.842;2023-05-07T21:44:41;7.75;;;3.90;;
45848;SDS011;31567;54.600;9.842;2023-05-07T21:48:20;6.82;;;3.45;;
45848;SDS011;31567;54.600;9.842;2023-05-07T21:52:00;12.57;;;3.45;;
45848;SDS011;31567;54.600;9.842;2023-05-07T21:55:40;7.95;;;3.28;;
45848;SDS011;31567;54.600;9.842;2023-05-07T21:59:19;7.47;;;3.30;;
45848;SDS011;31567;54.600;9.842;2023-05-07T22:02:59;7.60;;;3.40;;
45848;SDS011;31567;54.600;9.842;2023-05-07T22:06:38;6.00;;;3.90;;
45848;SDS011;31567;54.600;9.842;2023-05-07T22:10:18;5.30;;;3.33;;
45848;SDS011;31567;54.600;9.842;2023-05-07T22:14:00;6.25;;;3.40;;